Date,TemperatureHighF,TemperatureAvgF,TemperatureLowF,DewpointHighF,DewpointAvgF,DewpointLowF,HumidityHigh,HumidityAvg,HumidityLow,PressureMaxIn,PressureMinIn,WindSpeedMaxMPH,WindSpeedAvgMPH,GustSpeedMaxMPH,PrecipitationSumIn
2013-1-29,33.5,28.7,24.9,27.6,23.2,19.6,81,80,79,29.78,29.69,3,1,11,0.11
2013-1-30,24.9,15.7,5.6,18.8,9.5,0.0,83,76,70,29.81,29.69,7,2,17,0.00
2013-1-31,5.6,-0.2,-10.0,0.0,-7.3,-17.0,80,70,62,30.35,29.81,8,2,17,0.00
2013-2-1,0.9,-6.5,-19.0,-4.0,-13.5,-23.0,83,72,51,30.41,30.18,5,1,11,0.00
2013-2-2,11.7,4.3,-4.0,3.5,-2.0,-8.0,85,75,55,30.29,30.07,5,0,8,0.00
2013-2-3,13.9,8.9,1.4,4.7,1.9,-2.0,85,73,58,30.15,30.05,6,1,9,0.00
2013-2-4,14.5,7.7,-3.0,8.0,-0.5,-9.0,84,69,51,30.16,29.81,2,0,10,0.00
2013-2-5,28.4,18.6,-1.0,21.7,12.0,-4.0,85,77,49,30.12,29.71,4,1,11,0.00
2013-2-6,22.4,13.0,-3.0,18.3,9.0,-6.0,85,84,81,30.15,30.02,5,1,10,0.00
2013-2-7,27.9,24.2,21.9,21.9,19.2,15.8,84,81,75,30.31,30.08,2,1,9,0.00
2013-2-8,28.3,18.7,2.1,18.7,11.7,-1.0,86,75,55,30.43,30.27,7,1,12,0.00
2013-2-9,30.7,27.5,19.2,26.1,22.3,14.9,84,81,72,30.26,29.97,8,2,13,0.00
2013-2-10,31.4,28.5,26.0,23.6,20.7,17.7,84,73,63,29.96,29.33,6,2,12,0.00
2013-2-11,29.3,23.5,8.6,23.8,17.7,4.7,85,78,67,30.07,29.36,6,2,15,0.00
2013-2-12,34.6,20.6,2.2,22.3,14.2,-1.0,85,77,59,30.07,29.84,5,1,12,0.00
2013-2-13,39.1,27.7,17.9,28.5,20.5,13.3,84,75,61,29.83,29.61,4,1,9,0.03
2013-2-14,31.0,23.5,9.4,24.2,13.1,1.1,84,65,37,30.21,29.64,4,0,13,0.03
2013-2-15,18.3,9.1,1.1,3.4,0.6,-2.0,83,68,48,30.37,30.21,4,1,12,0.00
2013-2-16,22.3,5.8,-6.0,5.6,-1.0,-10.0,85,74,48,30.33,30.20,3,0,6,0.00
2013-2-17,31.3,18.3,-3.0,20.2,11.1,-7.0,85,74,60,30.19,29.69,6,2,17,0.00
2013-2-18,32.6,22.6,8.3,27.7,16.7,2.0,83,78,70,29.84,29.55,8,2,16,0.00
2013-2-19,11.1,4.5,-1.0,2.3,-4.7,-8.0,78,64,50,30.43,29.85,7,2,17,0.00
2013-2-20,16.7,1.5,-15.0,2.1,-6.2,-19.0,83,70,50,30.57,30.45,3,0,7,0.00
2013-2-21,22.2,10.1,-9.0,15.6,2.6,-13.0,85,72,53,30.58,30.20,5,1,9,0.00
2013-2-22,30.4,22.8,13.2,23.1,17.5,8.7,84,80,71,30.19,29.90,3,0,9,0.05
2013-2-23,35.0,24.7,10.2,25.2,18.1,5.8,84,76,64,29.99,29.88,3,1,7,0.08
2013-2-24,37.4,18.7,0.3,22.5,11.7,-3.0,85,75,54,30.16,30.00,3,0,9,0.08
2013-2-25,38.2,22.6,7.0,23.2,15.1,3.2,84,74,53,30.17,30.09,3,0,7,0.00
2013-2-26,37.6,24.3,9.7,27.2,17.9,5.5,83,77,66,30.12,29.94,4,0,7,0.00
2013-2-27,41.4,31.1,26.7,26.6,23.8,21.5,83,75,52,30.07,29.92,5,1,15,0.00
2013-2-28,29.7,27.2,19.7,22.1,19.7,13.9,78,73,66,30.28,30.07,4,1,8,0.00
2013-3-1,31.8,22.7,9.6,18.2,15.0,5.7,84,73,55,30.41,30.28,3,1,9,0.00
2013-3-2,31.7,15.7,-5.0,12.3,5.9,-8.0,85,67,40,30.43,30.24,2,0,7,0.00
2013-3-3,33.6,23.3,11.3,11.5,8.6,5.1,82,55,39,30.23,30.04,7,2,13,0.00
2013-3-4,24.9,24.0,22.4,19.9,14.6,7.6,83,69,48,30.09,30.00,7,2,16,0.00
2013-3-5,31.1,24.7,19.0,25.6,19.3,14.1,84,80,73,30.35,30.03,1,0,9,0.06
2013-3-6,31.2,18.3,1.3,18.7,12.1,-2.0,85,77,58,30.47,30.35,0,0,1,0.08
2013-3-7,35.3,15.9,-4.0,19.0,8.0,-7.0,85,72,51,30.46,30.35,6,1,14,0.01
2013-3-8,39.6,25.8,7.1,28.1,19.0,3.3,84,76,59,30.39,30.13,4,1,9,0.15
2013-3-9,35.6,34.1,32.1,28.6,23.8,21.5,82,66,61,30.12,29.71,6,1,10,0.42
2013-3-10,33.9,31.9,28.0,28.8,25.6,21.6,84,78,63,30.01,29.83,3,1,14,0.00
2013-3-11,31.4,27.0,22.0,23.2,20.9,16.7,83,78,66,29.92,29.78,4,1,9,0.00
2013-3-12,31.7,23.8,18.9,17.4,14.5,9.4,84,68,45,30.23,29.86,5,2,14,0.00
2013-3-13,33.5,21.2,8.8,16.2,11.7,4.7,85,68,44,30.42,30.24,6,1,9,0.00
2013-3-14,43.6,30.0,20.6,28.8,22.4,14.8,84,74,54,30.29,30.05,4,0,8,0.20
2013-3-15,33.6,29.0,21.1,28.7,23.6,16.0,83,80,71,30.04,29.89,4,1,10,0.03
2013-3-16,26.5,18.8,8.3,16.8,10.2,0.8,85,70,50,30.29,29.96,6,1,13,0.05
2013-3-17,26.7,13.2,-5.0,13.2,3.3,-8.0,85,66,46,30.34,29.95,9,2,15,0.00
2013-3-18,28.0,21.6,11.8,23.2,14.7,5.1,84,74,64,29.94,29.62,11,4,22,0.00
2013-3-19,24.6,13.4,5.9,5.3,1.5,-3.0,76,59,41,30.24,29.85,9,3,18,0.00
2013-3-20,24.0,11.8,2.3,4.4,-0.5,-5.0,70,57,42,30.27,30.17,6,2,17,0.00
2013-3-21,7.2,7.2,7.2,0.0,0.0,0.0,69,69,69,30.20,30.20,0,0,3,0.00
2013-3-26,27.2,27.2,27.2,19.7,19.7,19.7,73,73,73,30.32,30.32,0,0,1,0.00
2013-3-27,45.1,33.5,22.0,21.3,18.7,16.4,83,58,33,30.37,30.33,4,0,9,0.00
2013-3-28,48.6,31.2,13.9,23.2,17.1,9.1,83,60,33,30.39,30.30,4,0,8,0.00
2013-3-29,53.3,37.8,21.9,34.3,27.9,17.5,83,69,47,30.32,30.09,5,1,11,0.02
2013-3-30,54.0,43.1,34.5,41.5,34.5,28.1,82,72,52,30.07,29.84,6,1,10,0.58
2013-3-31,39.2,33.4,22.7,30.2,21.1,12.3,83,63,36,30.11,29.79,7,2,16,0.00
2013-4-1,34.3,23.9,14.2,13.5,11.7,9.1,80,61,40,30.31,30.12,10,2,16,0.00
2013-4-2,36.9,25.6,13.6,15.5,13.3,9.4,83,62,39,30.40,30.29,4,1,13,0.00
2013-4-3,46.2,32.1,12.0,31.2,19.1,7.3,83,62,34,30.44,30.06,8,2,19,0.00
2013-4-4,48.3,41.3,28.1,32.6,28.2,20.2,80,61,44,30.18,30.00,11,2,20,0.00
2013-4-5,40.7,31.7,19.8,29.4,21.6,15.2,83,68,39,30.28,29.96,7,2,15,0.00
2013-4-6,49.0,38.8,33.9,38.2,31.0,28.3,82,74,55,29.94,29.55,8,2,15,0.13
2013-4-7,47.9,38.4,31.0,34.6,30.9,23.2,83,75,60,29.96,29.76,3,1,9,0.09
2013-4-8,42.9,38.9,36.2,37.7,30.2,24.0,83,71,61,30.08,29.72,3,0,8,0.38
2013-4-9,44.3,37.5,32.7,32.3,28.1,22.4,83,70,53,30.21,30.04,8,1,16,0.00
2013-4-10,39.8,35.9,32.0,24.2,22.2,20.3,67,58,48,30.22,29.95,9,2,16,0.00
2013-4-11,35.4,35.2,34.9,22.1,21.0,18.5,59,56,50,29.97,29.87,6,2,12,0.00
2013-4-14,32.8,32.3,31.9,25.2,23.9,22.7,76,71,66,29.60,29.54,5,2,12,0.05
2013-4-15,38.6,35.2,31.7,29.6,27.9,22.1,83,75,62,29.97,29.53,11,4,22,0.22
2013-4-16,46.7,37.0,29.7,29.6,27.2,24.8,82,69,47,30.35,29.97,8,2,14,0.00
2013-4-17,39.9,34.6,27.5,31.5,27.2,20.9,83,74,65,30.36,29.98,4,1,10,0.01
2013-4-18,32.3,31.2,29.9,26.9,22.1,19.5,81,69,63,29.98,29.55,3,1,13,0.01
2013-4-19,38.5,32.0,27.0,26.8,22.6,14.2,84,69,54,30.01,29.52,5,0,10,0.29
2013-4-20,43.2,30.0,13.4,19.1,12.6,8.3,84,52,26,30.34,30.02,2,0,7,0.30
2013-4-21,45.8,37.8,29.6,38.4,29.6,17.2,82,72,56,30.34,30.03,8,2,18,0.19
2013-4-22,42.8,35.9,31.0,30.2,26.5,19.9,83,69,52,30.25,30.15,3,1,11,0.00
2013-4-23,42.5,34.6,25.4,28.0,22.4,18.1,84,62,39,30.19,30.09,4,1,12,0.49
2013-4-24,51.3,34.7,21.5,32.9,25.0,14.2,83,70,36,30.10,29.92,14,2,23,0.01
2013-4-25,50.5,39.7,28.6,30.2,27.4,22.6,83,64,39,30.21,30.00,7,2,16,0.01
2013-4-26,72.0,55.2,41.0,43.0,37.1,28.6,79,53,29,30.12,29.96,9,2,14,0.00
2013-4-27,74.7,55.5,32.3,43.8,32.3,21.1,81,47,16,30.13,29.86,6,1,12,0.00
2013-4-28,79.0,63.7,50.9,55.9,47.3,44.2,79,57,34,29.86,29.62,12,3,22,0.02
2013-4-29,74.9,60.2,45.3,52.8,41.5,35.1,79,54,24,29.81,29.53,6,1,12,0.00
2013-4-30,70.4,62.8,54.8,58.7,44.6,25.6,79,55,20,29.91,29.36,8,3,22,0.00
2013-5-1,53.5,41.4,33.5,36.0,29.6,24.8,80,63,50,30.50,29.94,4,1,12,0.09
2013-5-2,47.6,39.2,34.0,28.7,26.7,24.7,74,61,45,30.57,30.46,5,1,12,0.00
2013-5-3,37.6,33.5,29.2,31.9,26.4,22.8,81,75,65,30.45,30.21,5,1,11,0.13
2013-5-4,44.7,37.3,31.8,38.9,30.5,21.5,82,76,62,30.22,30.17,6,1,8,0.09
2013-5-5,68.0,49.1,36.7,49.1,39.1,29.9,82,70,50,30.21,30.08,4,1,7,0.00
2013-5-6,75.9,56.7,38.1,49.4,40.7,25.8,82,57,35,30.13,30.00,4,1,10,0.00
2013-5-7,78.9,62.2,43.5,50.8,42.7,30.5,79,53,27,30.05,29.93,4,1,13,0.00
2013-5-8,78.7,61.5,49.2,55.6,48.2,41.8,79,64,36,30.00,29.93,3,0,14,0.12
2013-5-9,56.2,50.6,41.1,48.3,41.5,29.0,81,71,59,30.13,29.95,4,1,12,0.03
2013-5-10,66.7,50.2,32.1,42.3,28.8,22.5,79,49,19,30.15,29.86,4,1,10,0.00
2013-5-11,54.1,44.9,35.4,40.5,27.3,22.0,70,51,35,30.18,29.87,8,2,23,0.00
2013-5-12,59.3,42.9,28.4,28.0,22.7,17.0,81,50,20,30.25,30.09,4,1,13,0.00
2013-5-13,71.6,51.6,28.4,45.3,33.3,20.2,80,53,29,30.13,29.64,8,2,18,0.02
2013-5-14,95.0,68.4,42.5,53.7,43.5,30.0,80,47,14,29.70,29.43,10,2,21,0.00
2013-5-15,82.5,67.0,46.3,49.8,44.0,36.5,79,48,20,29.88,29.65,9,2,14,0.00
2013-5-16,83.1,67.5,46.5,49.4,40.4,28.8,77,42,22,29.91,29.78,6,2,15,0.00
2013-5-17,66.9,59.8,55.1,51.3,45.6,26.8,77,62,22,29.97,29.88,8,2,12,0.03
2013-5-18,80.7,64.1,53.3,65.2,52.6,38.4,78,67,56,29.97,29.77,8,1,14,0.55
2013-5-19,83.6,68.1,61.6,66.7,56.5,45.8,78,67,56,29.77,29.54,8,2,17,1.33
2013-5-20,72.5,65.1,57.1,61.0,53.6,44.6,80,67,57,29.56,29.48,10,2,15,1.10
2013-5-21,54.6,49.5,44.5,45.1,38.1,33.4,78,65,59,29.74,29.51,7,1,8,0.47
2013-5-22,51.1,47.1,42.7,45.1,38.1,30.9,82,71,61,30.02,29.72,6,1,11,0.13
2013-5-23,64.9,51.0,40.8,39.4,35.6,31.0,83,59,31,30.34,30.03,4,1,9,0.00
2013-5-24,67.7,52.9,32.9,49.7,36.0,22.0,81,56,32,30.40,30.19,5,1,14,0.35
2013-5-25,65.3,57.9,52.1,50.0,45.3,38.8,81,64,50,30.26,30.21,11,2,16,0.04
2013-5-26,63.1,56.5,49.4,47.2,42.3,35.8,76,60,38,30.23,30.05,10,2,16,0.00
2013-5-27,60.7,57.8,55.4,53.2,49.4,46.3,79,74,66,30.05,29.83,7,2,12,0.00
2013-5-28,59.9,56.4,52.9,53.6,47.9,41.4,80,74,57,29.83,29.70,3,1,8,0.05
2013-5-29,78.4,66.1,55.8,67.1,55.5,41.4,80,69,57,29.82,29.61,6,2,13,0.11
2013-5-30,77.7,68.3,63.3,63.4,57.0,47.7,78,68,56,29.64,29.49,10,2,18,0.50
2013-5-31,77.2,67.2,56.3,59.0,52.9,45.3,79,61,47,29.53,29.45,15,3,21,0.29
2013-6-1,70.7,59.3,50.1,58.9,50.5,44.0,81,73,61,29.93,29.51,5,1,12,0.72
2013-6-2,67.6,56.1,46.1,47.5,42.6,38.8,80,63,39,30.07,29.94,3,1,12,0.00
2013-6-3,68.5,57.1,41.3,51.2,41.8,29.6,82,58,39,30.06,29.95,3,0,7,0.00
2013-6-4,63.0,57.3,53.1,54.9,47.0,40.2,80,69,53,30.09,29.99,7,1,14,0.43
2013-6-5,59.1,54.5,50.3,52.2,43.2,37.3,78,66,58,30.05,29.95,4,1,10,0.11
2013-6-6,55.3,51.4,47.7,49.6,41.9,34.5,82,71,60,30.04,29.98,2,0,7,0.01
2013-6-7,63.8,55.8,47.9,54.4,47.1,35.8,82,73,62,30.06,29.92,1,0,4,0.00
2013-6-8,71.3,62.4,50.6,56.5,49.4,37.2,82,63,55,29.91,29.87,5,1,10,0.00
2013-6-9,62.0,58.1,55.4,54.7,47.3,42.7,81,68,58,29.88,29.78,5,1,14,0.58
2013-6-10,75.1,63.0,55.3,62.5,51.8,41.2,82,67,58,29.85,29.79,2,0,5,0.00
2013-6-11,78.3,65.0,51.0,68.0,55.2,38.4,82,71,59,29.87,29.79,3,0,6,0.00
2013-6-12,77.0,64.5,57.4,66.4,54.8,46.1,82,72,57,29.91,29.75,3,0,10,0.25
2013-6-13,79.4,66.2,52.2,59.6,53.7,45.5,82,66,45,30.07,29.92,3,1,8,0.00
2013-6-14,78.2,67.1,51.2,62.1,55.9,39.8,82,68,54,30.06,29.84,10,2,18,0.00
2013-6-15,76.4,69.4,57.4,67.7,61.0,44.0,80,75,60,29.86,29.80,3,0,11,0.01
2013-6-16,85.8,68.8,51.0,59.7,49.0,39.5,81,53,27,29.89,29.79,8,1,23,0.01
2013-6-17,79.7,67.8,54.7,62.1,53.9,41.0,80,62,44,30.01,29.82,4,1,11,0.00
2013-6-18,77.4,62.6,46.7,58.8,51.2,41.5,82,68,46,30.08,30.00,2,0,8,0.00
2013-6-19,83.7,70.3,53.3,63.5,56.6,41.0,81,63,48,30.04,29.91,4,1,11,0.00
2013-6-20,87.6,76.2,63.6,71.2,64.9,55.8,79,69,48,29.95,29.83,6,1,12,0.00
2013-6-21,75.6,73.8,69.9,66.6,65.0,60.4,77,74,72,29.81,29.71,6,3,12,0.18
2013-6-23,71.7,66.7,63.9,64.4,55.9,49.2,79,68,59,29.83,29.78,0,0,16,0.00
2013-6-24,83.1,71.8,58.4,71.0,59.8,45.0,80,66,58,29.87,29.75,5,1,9,0.00
2013-6-25,86.1,74.6,61.3,72.3,62.5,46.6,81,67,57,29.79,29.67,8,1,11,0.00
2013-6-26,88.1,78.7,69.4,74.9,65.5,55.0,79,64,54,29.75,29.61,7,1,12,0.00
2013-6-27,85.5,74.5,63.9,67.4,58.4,49.1,81,59,40,29.76,29.73,6,1,22,0.00
2013-6-28,77.7,68.4,61.3,64.5,58.8,49.4,81,72,60,29.77,29.72,5,1,15,0.24
2013-6-29,77.7,67.4,57.0,64.0,54.3,46.5,81,63,51,29.96,29.72,2,1,8,0.25
2013-6-30,83.5,67.4,52.8,60.8,52.3,39.7,82,60,39,30.09,29.98,6,1,7,0.00
2013-7-1,84.7,70.2,55.3,65.8,54.0,42.1,81,58,39,30.16,30.09,3,0,7,0.00
2013-7-2,84.0,69.0,54.1,59.1,53.7,45.2,81,61,37,30.14,30.02,3,0,7,0.00
2013-7-3,84.4,69.2,54.0,60.4,51.3,40.8,81,55,35,30.05,29.91,3,0,9,0.00
2013-7-4,88.3,72.9,56.2,63.9,56.5,42.6,81,59,33,29.93,29.81,8,1,14,0.00
2013-7-5,88.3,79.5,70.5,64.9,61.5,56.9,68,55,41,29.84,29.74,8,3,18,0.00
2013-7-6,84.2,76.9,70.8,74.6,65.9,61.8,79,69,56,29.82,29.75,3,1,11,0.00
2013-7-7,91.6,79.3,68.2,74.6,66.1,52.3,79,65,54,29.84,29.76,5,1,13,0.62
2013-7-8,83.5,69.1,59.1,71.8,57.3,45.2,81,66,58,29.98,29.85,3,0,6,0.01
2013-7-9,85.9,73.7,66.8,73.1,61.5,51.5,80,66,58,29.93,29.70,6,1,18,1.02
2013-7-10,80.3,69.4,58.0,63.2,57.4,49.7,81,67,44,30.01,29.88,4,1,12,0.00
2013-7-11,84.3,70.9,55.5,63.9,54.5,42.2,82,58,42,30.08,29.93,6,1,10,0.00
2013-7-12,88.6,77.9,67.7,65.2,61.0,57.1,71,57,44,29.96,29.83,8,3,17,0.00
2013-7-13,80.3,73.3,66.6,72.0,63.4,51.6,79,72,56,30.02,29.87,9,2,19,1.50
2013-7-14,85.6,74.3,68.9,71.5,64.7,55.7,79,73,54,30.14,30.01,5,1,9,0.02
2013-7-15,87.6,75.9,64.3,70.8,62.0,49.4,80,63,52,30.19,30.11,4,1,9,0.00
2013-7-16,90.8,80.5,72.1,74.3,69.2,61.3,79,69,55,30.15,30.10,6,1,11,0.00
2013-7-17,91.3,80.3,68.1,75.6,65.7,52.7,80,62,52,30.19,30.05,6,1,15,0.00
2013-7-18,92.2,82.4,71.0,74.9,68.1,55.9,79,63,50,30.05,29.68,6,2,20,0.00
2013-7-19,83.0,77.6,65.8,71.4,64.9,56.1,80,66,50,29.84,29.64,7,2,16,0.01
2013-7-20,77.4,68.4,61.4,61.3,55.9,48.1,80,65,52,29.93,29.81,2,0,6,0.01
2013-7-21,79.8,67.5,53.7,68.3,59.6,48.0,81,76,67,29.93,29.77,4,1,9,0.00
2013-7-22,85.6,73.6,65.2,72.4,62.5,56.6,80,69,50,29.80,29.63,6,2,11,0.00
2013-7-23,77.2,65.7,55.6,56.7,53.8,46.3,82,67,47,30.00,29.82,3,0,13,0.00
2013-7-24,77.9,64.3,53.4,61.2,53.0,41.3,81,67,52,30.06,29.93,5,1,6,0.01
2013-7-25,77.7,69.0,59.0,66.8,59.2,45.5,81,71,61,29.94,29.86,2,0,12,0.06
2013-7-26,68.5,61.4,54.7,59.4,52.9,45.8,81,74,61,30.07,29.87,9,1,14,0.08
2013-7-27,60.2,54.5,50.6,53.6,48.2,44.9,82,80,68,30.07,29.93,7,1,12,0.14
2013-7-28,73.1,59.1,47.2,56.9,49.5,40.0,82,71,52,30.04,29.96,2,1,8,0.00
2013-7-29,76.6,63.3,47.3,60.3,50.4,35.7,81,64,47,30.12,30.05,6,1,10,0.00
2013-7-30,69.9,64.0,59.0,63.7,53.7,45.5,81,70,60,30.09,30.02,2,0,5,0.29
2013-7-31,78.3,66.4,57.1,65.2,54.2,44.5,82,66,47,30.05,29.95,3,0,11,0.00
2013-8-1,79.3,65.2,49.6,63.6,51.8,37.5,81,63,45,30.00,29.84,2,0,10,0.00
2013-8-2,76.3,64.6,53.1,60.1,51.3,40.6,82,63,48,30.02,29.83,4,0,7,0.00
2013-8-3,76.8,62.3,48.1,58.0,47.7,36.5,83,60,41,30.18,30.02,2,0,10,0.00
2013-8-4,77.3,61.8,47.7,58.2,48.7,36.1,81,63,44,30.22,30.00,5,1,8,0.00
2013-8-5,78.6,67.2,58.3,68.7,57.5,46.8,82,72,60,29.99,29.75,3,0,8,0.40
2013-8-6,80.3,64.8,53.6,68.7,53.8,40.8,83,68,62,29.81,29.66,5,1,13,0.06
2013-8-7,76.2,65.0,54.5,58.1,51.6,44.5,82,63,46,30.00,29.75,3,1,8,0.01
2013-8-8,76.0,63.4,51.5,60.9,51.7,39.3,83,66,54,30.03,29.95,5,1,9,0.00
2013-8-9,75.1,64.1,52.4,58.8,50.8,40.1,82,63,48,30.10,29.97,4,1,12,0.00
2013-8-10,77.0,64.1,52.7,58.7,52.2,41.6,82,67,47,30.16,30.07,2,0,7,0.00
2013-8-11,80.6,67.4,54.3,64.2,54.8,42.2,80,65,51,30.07,29.96,3,0,6,0.00
2013-8-12,79.7,66.0,55.0,62.5,52.0,42.2,82,62,43,30.05,29.97,4,1,10,0.03
2013-8-13,76.1,62.3,50.7,56.6,46.9,38.5,83,59,34,30.18,30.06,3,0,7,0.00
2013-8-14,78.8,62.4,48.2,59.2,48.2,36.2,81,61,40,30.18,30.07,4,1,10,0.00
2013-8-15,78.9,62.9,48.8,62.5,50.4,36.7,81,64,48,30.11,30.05,3,0,11,0.00
2013-8-16,80.2,66.7,55.6,62.8,52.3,42.3,81,61,44,30.16,30.11,4,1,10,0.00
2013-8-17,81.5,65.9,50.6,60.3,51.2,38.4,81,60,45,30.17,30.07,9,1,12,0.00
2013-8-18,81.9,68.1,52.0,60.8,52.9,39.3,81,60,44,30.11,29.96,8,1,14,0.00
2013-8-19,86.8,75.8,65.2,69.8,65.0,58.8,81,70,57,29.97,29.84,5,1,12,0.00
2013-8-20,91.0,79.0,68.5,73.8,68.4,57.4,80,71,55,29.86,29.79,9,1,14,0.00
2013-8-21,89.0,77.1,66.5,76.5,66.6,56.2,80,71,49,29.96,29.77,4,1,10,0.00
2013-8-22,85.5,70.9,57.8,59.1,53.8,50.4,82,59,31,30.10,29.96,2,0,7,0.00
2013-8-23,87.9,68.2,50.0,66.3,52.6,38.3,79,59,41,30.13,30.00,5,1,11,0.00
2013-8-24,90.4,79.4,69.6,72.4,68.3,63.5,81,70,53,30.02,29.86,14,3,21,0.00
2013-8-25,95.0,85.1,78.4,76.2,73.3,70.4,78,69,54,29.94,29.85,8,3,15,0.00
2013-8-26,95.9,85.4,76.3,76.7,74.0,67.7,80,70,52,29.91,29.76,5,2,12,0.00
2013-8-27,93.3,82.4,70.7,78.2,71.9,59.1,80,71,57,29.87,29.72,4,1,9,0.00
2013-8-28,89.7,75.4,66.0,73.4,62.7,52.1,81,66,47,29.97,29.87,4,0,9,0.00
2013-8-29,92.1,79.7,68.5,77.4,68.4,57.9,80,69,51,29.96,29.78,6,1,14,0.01
2013-8-30,86.0,74.8,65.3,70.9,64.7,58.3,82,72,53,29.90,29.77,5,1,9,0.00
2013-8-31,87.9,71.3,58.1,69.0,59.4,45.1,81,67,49,29.86,29.67,4,1,20,0.15
2013-9-1,71.7,66.4,58.2,62.2,58.4,52.7,82,76,67,29.96,29.70,5,1,11,0.00
2013-9-2,68.9,58.1,49.0,54.4,50.2,38.5,83,75,59,30.08,29.96,3,0,6,0.00
2013-9-3,78.2,59.6,42.9,60.7,48.1,33.1,83,66,50,30.09,29.96,5,1,9,0.00
2013-9-4,83.9,67.3,53.5,66.6,54.5,41.6,81,64,49,30.13,30.00,3,0,7,0.00
2013-9-5,84.0,68.4,51.7,63.8,55.4,39.9,83,65,46,30.21,30.07,4,1,8,0.00
2013-9-6,90.9,78.0,66.7,69.2,64.4,54.5,81,64,45,30.06,29.81,6,2,15,0.00
2013-9-7,94.0,77.9,65.1,71.3,64.7,51.3,81,65,43,29.99,29.80,4,1,9,0.00
2013-9-8,70.3,64.0,60.5,60.4,56.5,51.2,82,77,70,30.03,29.87,5,1,11,0.01
2013-9-9,89.9,74.0,63.8,74.9,64.1,54.4,82,72,61,29.87,29.59,6,1,10,0.05
2013-9-10,83.3,71.9,62.2,68.5,60.4,53.6,81,68,47,29.94,29.72,5,1,15,0.03
2013-9-11,83.8,69.6,56.9,63.8,53.3,44.4,82,58,34,30.03,29.95,5,1,15,0.00
2013-9-12,73.0,60.7,46.5,56.6,47.9,38.2,82,65,42,30.22,30.03,6,1,15,0.00
2013-9-13,71.0,53.7,38.8,49.7,40.6,29.1,82,63,41,30.28,30.08,3,1,7,0.00
2013-9-14,71.0,55.2,42.1,57.0,43.8,31.9,80,66,50,30.08,29.90,5,1,11,0.62
2013-9-15,65.6,55.0,43.7,53.5,44.6,34.9,82,68,62,30.32,29.89,2,0,9,0.28
2013-9-16,67.1,50.0,35.9,44.1,36.4,26.7,84,62,35,30.42,30.26,5,1,11,0.00
2013-9-17,68.7,55.6,44.6,54.6,47.7,39.4,84,75,60,30.26,29.94,10,2,15,0.02
2013-9-18,72.1,65.3,57.7,65.9,54.7,46.3,81,69,61,29.93,29.67,4,1,11,0.05
2013-9-19,74.8,68.2,60.8,68.5,57.0,48.5,82,68,60,29.75,29.59,13,1,24,0.84
2013-9-20,63.5,57.1,47.9,54.8,50.2,39.7,83,78,61,29.91,29.74,5,1,11,0.00
2013-9-21,63.9,51.2,42.1,48.9,42.0,32.3,84,71,57,29.99,29.91,6,0,8,0.01
2013-9-22,71.8,56.3,41.9,56.6,46.2,31.7,85,69,58,29.99,29.85,8,2,13,0.00
2013-9-23,72.8,62.2,53.0,55.6,52.4,47.9,83,71,52,29.93,29.85,7,2,17,0.00
2013-9-24,75.6,59.2,48.7,57.6,48.7,37.5,83,69,47,29.96,29.90,5,1,9,0.00
2013-9-25,73.8,59.8,47.2,57.6,47.9,36.0,84,66,50,29.96,29.86,6,1,12,0.00
2013-9-26,80.3,66.7,54.9,62.7,56.5,49.8,83,71,55,29.91,29.80,11,2,17,0.00
2013-9-27,82.5,72.2,66.1,65.7,61.8,59.3,81,71,53,29.88,29.75,10,2,18,0.01
2013-9-28,73.9,60.3,43.4,61.3,52.6,33.9,84,76,65,29.90,29.58,11,2,17,0.24
2013-9-29,75.7,57.9,39.5,51.9,42.5,29.8,83,58,38,29.95,29.76,5,1,13,0.01
2013-9-30,78.9,66.9,58.1,55.6,51.0,46.7,69,57,43,29.75,29.55,7,2,16,0.00
2013-10-1,73.7,63.8,43.9,53.7,45.9,36.5,83,56,26,29.95,29.52,6,2,17,0.00
2013-10-2,74.3,55.0,38.1,50.9,39.9,28.4,81,61,28,30.04,29.86,7,1,14,0.26
2013-10-3,56.2,54.4,53.4,45.4,43.3,42.0,71,66,64,29.95,29.86,3,0,11,0.22
2013-10-4,58.2,55.2,52.9,52.7,47.8,43.0,82,76,65,30.00,29.87,4,1,12,0.07
2013-10-5,58.0,53.5,45.7,46.8,42.6,35.4,82,67,63,29.87,29.73,3,0,11,0.38
2013-10-6,51.7,47.3,40.7,45.7,38.0,31.0,81,70,65,29.84,29.68,2,0,9,0.07
2013-10-7,66.6,49.5,37.9,50.0,38.7,30.0,85,68,43,29.98,29.83,5,0,9,0.01
2013-10-8,75.6,61.2,42.9,50.4,45.8,32.3,84,60,39,29.97,29.78,6,2,19,0.00
2013-10-9,76.1,64.3,56.0,54.5,50.7,48.2,80,62,46,30.01,29.89,9,2,15,0.00
2013-10-10,77.4,61.8,50.3,56.0,50.2,45.3,83,68,43,30.01,29.86,7,1,13,0.00
2013-10-11,72.6,64.5,55.0,59.3,54.1,49.9,83,70,54,29.86,29.58,14,3,24,0.31
2013-10-12,59.3,49.8,41.9,53.8,43.3,34.5,84,79,68,30.15,29.65,9,2,20,0.01
2013-10-13,60.3,44.3,32.3,43.3,33.7,23.6,83,68,41,30.44,30.16,3,0,7,0.00
2013-10-14,53.0,44.4,34.6,43.2,36.2,25.4,84,73,60,30.42,30.00,4,0,10,0.24
2013-10-15,47.2,47.1,47.1,38.1,37.7,37.0,71,70,68,30.00,29.94,4,3,9,0.24
2013-10-18,40.0,39.0,38.2,35.5,34.2,32.8,84,83,81,29.89,29.85,0,0,3,0.22
2013-10-19,46.3,38.4,29.5,38.9,31.4,21.9,84,76,65,29.83,29.70,3,0,10,0.04
2013-10-20,37.7,32.9,28.1,29.6,24.5,19.9,80,71,68,29.89,29.66,3,0,9,0.16
2013-10-21,38.9,33.1,26.5,29.8,25.1,22.3,86,73,56,29.98,29.91,5,1,14,0.00
2013-10-22,40.4,31.7,22.5,33.1,25.7,16.3,85,78,67,30.06,29.98,1,0,7,0.01
2013-10-23,37.3,32.8,29.4,30.3,24.9,21.3,86,73,62,30.13,30.02,4,1,15,0.01
2013-10-24,41.3,35.6,31.0,30.7,27.5,22.5,84,73,57,30.33,30.13,3,0,13,0.00
2013-10-25,55.9,42.0,26.7,43.6,33.4,20.1,85,73,56,30.33,29.78,9,2,18,0.00
2013-10-26,49.6,41.2,34.1,39.8,30.8,28.5,80,67,57,30.11,29.79,5,1,13,0.00
2013-10-27,57.1,40.0,26.9,36.7,29.7,21.7,85,68,45,30.17,29.83,5,1,14,0.00
2013-10-28,43.7,33.9,26.9,29.5,23.8,20.1,85,68,42,30.48,30.19,5,1,15,0.00
2013-10-29,36.3,33.1,25.1,32.2,27.8,21.2,85,81,71,30.46,30.14,5,0,8,0.05
2013-10-30,46.5,41.6,35.6,36.1,31.8,27.6,77,68,66,30.14,29.69,2,0,4,0.12
2013-10-31,46.0,41.7,38.4,35.5,33.0,30.5,81,71,66,29.68,29.40,7,1,8,0.08
2013-11-1,50.6,41.0,33.1,39.0,34.0,28.5,86,76,61,29.85,29.41,4,1,11,0.00
2013-11-2,49.9,36.7,27.1,34.2,29.0,20.3,85,75,49,30.11,29.86,4,0,10,0.00
2013-11-3,53.9,41.9,27.7,36.3,31.7,20.8,86,68,48,30.14,29.90,8,2,24,0.00
2013-11-4,48.2,42.1,27.9,41.0,34.3,20.3,84,74,60,30.14,29.82,10,2,19,0.15
2013-11-5,39.7,31.5,23.9,34.2,24.3,16.5,84,75,69,30.27,30.08,1,0,4,0.18
2013-11-6,40.1,31.4,24.6,31.2,25.3,19.6,86,78,67,30.18,30.07,3,0,8,0.26
2013-11-7,36.8,26.6,17.6,30.7,20.9,12.7,86,79,73,30.27,30.18,3,0,8,0.00
2013-11-8,42.7,31.9,19.3,35.0,24.6,13.7,85,75,64,30.23,29.61,5,1,15,0.15
2013-11-9,41.8,39.3,36.6,36.3,32.2,27.6,84,76,65,30.19,29.62,11,3,22,0.00
2013-11-10,40.8,35.7,26.5,30.8,28.7,22.0,85,76,65,30.35,30.13,7,1,16,0.00
2013-11-11,35.1,22.5,12.3,30.1,12.9,7.3,83,67,52,30.77,30.14,6,1,15,0.00
2013-11-12,28.1,18.7,9.4,14.6,9.7,5.5,85,69,45,30.83,30.49,4,1,11,0.00
2013-11-13,50.4,34.0,18.7,34.0,24.6,13.0,83,69,51,30.48,29.89,7,2,16,0.00
2013-11-14,52.1,37.7,27.0,39.0,31.3,19.5,84,78,60,29.88,29.75,4,0,9,0.00
2013-11-15,55.8,38.8,23.8,39.6,29.9,16.4,85,71,52,29.86,29.64,4,1,12,0.00
2013-11-16,45.0,42.7,38.5,39.9,35.0,32.4,84,74,66,29.64,29.25,6,1,11,0.14
2013-11-17,43.3,38.6,30.5,38.1,31.6,24.0,85,76,67,29.81,29.29,9,2,20,0.01
2013-11-18,32.9,26.3,16.6,23.7,19.8,12.6,86,76,64,30.30,29.82,13,2,20,0.00
2013-11-19,44.5,32.1,16.2,30.9,23.4,11.9,86,72,54,30.31,29.93,7,2,20,0.00
2013-11-20,44.9,41.4,36.2,32.5,30.1,26.9,85,65,53,30.04,29.90,10,2,14,0.00
2013-11-21,36.2,30.0,22.9,31.8,23.8,15.1,86,78,70,30.56,30.05,4,1,13,0.00
2013-11-22,33.0,20.4,10.4,16.1,9.8,3.6,87,66,31,30.68,30.49,9,1,17,0.00
2013-11-23,17.9,8.3,2.4,5.3,1.1,-2.0,85,73,45,30.91,30.70,5,1,11,0.00
2013-11-24,31.0,18.1,1.5,17.5,8.7,-1.0,86,68,49,30.78,30.00,12,3,21,0.00
2013-11-25,37.1,32.1,27.1,27.8,23.1,17.8,85,70,57,30.10,29.91,10,3,18,0.00
2013-11-26,28.1,18.4,9.1,18.5,7.6,3.9,80,63,51,30.44,30.11,10,2,19,0.00
2013-11-27,22.5,13.9,1.0,11.0,6.1,-2.0,87,72,57,30.45,30.14,4,1,9,0.00
2013-11-28,25.4,18.8,4.9,15.3,10.4,1.6,86,70,57,30.56,30.13,4,0,10,0.00
2013-11-29,30.9,19.6,2.4,21.0,12.7,0.0,87,75,58,30.57,30.20,8,1,14,0.00
2013-11-30,37.6,27.8,16.7,26.9,21.5,12.7,86,77,65,30.21,30.07,2,0,6,0.00
2013-12-1,33.3,22.0,11.5,25.7,17.3,8.1,86,82,71,30.23,29.98,3,0,5,0.00
2013-12-2,37.4,31.1,24.1,31.7,25.8,20.2,86,81,72,29.97,29.62,5,1,11,0.17
2013-12-3,33.3,32.6,30.2,25.9,24.5,23.7,83,72,69,29.83,29.62,2,1,8,0.22
2013-12-4,29.9,26.0,14.7,25.3,21.2,10.4,87,82,78,29.82,29.50,3,0,7,0.00
2013-12-5,13.3,3.9,-4.0,9.1,-1.3,-8.0,83,78,67,30.40,29.69,0,0,0,0.00
2013-12-6,5.2,-5.4,-13.0,-4.0,-10.3,-16.0,86,78,62,30.74,30.40,0,0,0,0.00
2013-12-7,0.0,-10.8,-20.0,-9.0,-15.8,-24.0,84,78,63,30.83,30.69,0,0,0,0.00
2013-12-8,9.0,1.6,-14.0,4.6,-2.1,-18.0,87,84,79,30.69,30.13,0,0,0,0.00
2013-12-9,3.8,-2.4,-8.0,0.5,-7.3,-12.0,87,79,64,30.17,29.96,0,0,0,0.00
2013-12-10,7.1,1.3,-4.0,-1.0,-3.5,-8.0,86,79,65,30.36,29.87,0,0,0,0.00
2013-12-11,0.6,-5.9,-15.0,-7.0,-12.2,-19.0,83,74,58,30.66,30.38,0,0,0,0.00
2013-12-12,15.6,6.7,-8.0,10.0,1.2,-11.0,86,78,64,30.39,30.23,0,0,0,0.00
2013-12-13,14.5,10.1,6.7,10.1,5.0,2.8,84,80,76,30.38,30.22,0,0,0,0.00
2013-12-14,13.5,7.5,-2.0,7.0,2.7,-8.0,85,81,72,30.38,30.16,0,0,0,0.00
2013-12-15,3.4,-3.2,-9.0,-7.0,-10.1,-14.0,81,71,53,30.25,30.18,0,0,0,0.00
2013-12-16,15.5,6.1,-3.0,11.0,1.2,-10.0,86,80,69,30.23,29.96,0,0,0,0.00
2013-12-17,30.4,19.6,-4.0,26.4,13.4,-7.0,86,77,61,30.16,29.91,2,0,11,0.00
2013-12-18,34.0,17.4,-1.0,23.7,12.1,-5.0,87,80,63,30.12,29.70,4,1,14,0.00
2013-12-19,21.4,14.8,11.9,17.8,9.7,6.5,86,80,72,30.15,29.87,2,0,9,0.00
2013-12-20,20.0,12.6,5.6,12.1,8.0,2.5,87,82,71,30.12,29.96,1,0,7,0.00
2013-12-21,22.2,17.5,12.1,15.5,12.6,8.7,86,81,75,30.07,29.98,1,0,4,0.00
2013-12-22,18.5,13.7,7.0,13.2,9.7,3.2,86,84,76,30.28,30.02,1,0,5,0.00
2013-12-23,6.5,-2.2,-15.0,2.7,-7.1,-19.0,84,79,71,30.60,30.29,0,0,0,0.00
2013-12-24,8.3,-5.0,-24.0,4.7,-10.3,-29.0,85,77,59,30.59,30.23,0,0,1,0.00
2013-12-25,22.7,13.7,8.1,18.0,9.2,4.2,87,82,71,30.23,30.11,0,0,7,0.00
2013-12-26,22.5,16.3,7.9,17.5,12.3,4.8,87,84,78,30.23,30.13,3,0,4,0.00
2013-12-27,39.3,23.6,3.3,30.6,18.4,0.3,87,81,71,30.22,29.91,4,0,12,0.15
2013-12-28,43.5,27.7,16.0,33.3,21.9,11.4,86,79,64,30.06,29.69,7,1,13,0.21
2013-12-29,14.3,-4.7,-24.0,9.2,-12.4,-28.0,81,69,49,30.39,30.07,5,1,16,0.00
2013-12-30,0.0,-11.0,-26.0,-6.0,-15.5,-30.0,84,80,74,30.40,30.31,2,0,5,0.00
2013-12-31,-3.0,-13.6,-23.0,-11.0,-18.7,-27.0,84,78,63,30.55,30.32,1,0,5,0.00
2014-1-1,0.0,-5.4,-12.0,-9.0,-12.1,-17.0,79,72,66,30.63,30.54,1,0,4,0.00
2014-1-2,4.0,-9.5,-21.0,-11.0,-17.2,-25.0,83,70,46,30.63,30.54,1,0,5,0.00